createdAt,value
2019-04-22T00:02:13.197Z,99523.45
2019-04-22T00:04:55.091Z,99513.45
2019-04-22T00:07:40.328Z,99517.84
2019-04-22T00:10:12.051Z,99514.09
2019-04-22T00:12:47.329Z,99506.17
2019-04-22T00:15:10.018Z,99518.78
2019-04-22T00:18:04.831Z,99516.91
2019-04-22T00:20:22.633Z,99515.11
2019-04-22T00:22:52.284Z,99518.72
2019-04-22T00:25:32.930Z,99518.82
2019-04-22T00:28:06.668Z,99516.92
2019-04-22T00:30:47.091Z,99516.81
2019-04-22T00:33:18.696Z,99510.55
2019-04-22T00:35:52.205Z,99516.23
2019-04-22T00:38:23.415Z,99518.31
2019-04-22T00:40:52.243Z,99512.63
2019-04-22T00:43:34.337Z,99517.08
2019-04-22T00:45:57.859Z,99521.05
2019-04-22T00:48:38.330Z,99516.27
2019-04-22T00:51:17.430Z,99514.16
2019-04-22T00:56:17.325Z,99515.48
2019-04-22T01:01:35.006Z,99507.42
2019-04-22T01:03:59.057Z,99510.80
2019-04-22T01:09:00.240Z,99507.20
2019-04-22T01:11:29.122Z,99507.36
2019-04-22T01:14:02.146Z,99509.28
2019-04-22T01:16:37.179Z,99503.20
2019-04-22T01:19:07.261Z,99506.96
2019-04-22T01:21:40.490Z,99510.17
2019-04-22T01:24:11.623Z,99518.04
2019-04-22T01:26:38.847Z,99513.55
2019-04-22T01:29:10.977Z,99510.03
2019-04-22T01:31:34.597Z,99504.53
2019-04-22T01:34:19.800Z,99516.00
2019-04-22T01:36:59.423Z,99508.02
2019-04-22T01:39:41.288Z,99506.97
2019-04-22T01:42:06.065Z,99512.13
2019-04-22T01:44:40.526Z,99507.30
2019-04-22T01:47:21.406Z,99505.22
2019-04-22T01:49:49.534Z,99510.69
2019-04-22T01:54:54.662Z,99513.32
2019-04-22T01:57:27.032Z,99506.48
2019-04-22T01:59:51.456Z,99512.84
2019-04-22T02:02:32.374Z,99504.55
2019-04-22T02:05:10.635Z,99500.05
2019-04-22T02:07:34.131Z,99505.89
2019-04-22T02:10:11.140Z,99510.55
2019-04-22T02:12:43.138Z,99504.60
2019-04-22T02:15:11.873Z,99511.62
2019-04-22T02:17:48.196Z,99516.42
2019-04-22T02:20:23.177Z,99515.25
2019-04-22T02:23:45.898Z,99517.98
2019-04-22T02:28:38.231Z,99520.42
2019-04-22T02:34:01.727Z,99516.02
2019-04-22T02:49:08.544Z,99519.67
2019-04-22T03:01:47.770Z,99521.34
2019-04-22T03:04:09.647Z,99519.34
2019-04-22T03:06:38.512Z,99522.77
2019-04-22T03:09:18.493Z,99518.98
2019-04-22T03:11:56.738Z,99520.91
2019-04-22T03:14:37.937Z,99522.19
2019-04-22T03:17:10.607Z,99519.54
2019-04-22T03:19:36.034Z,99524.53
2019-04-22T03:27:00.724Z,99525.66
2019-04-22T03:35:40.021Z,99530.05
2019-04-22T03:37:53.310Z,99530.05
2019-04-22T03:43:02.402Z,99532.52
2019-04-22T03:45:28.279Z,99535.70
2019-04-22T03:53:09.451Z,99533.18
2019-04-22T03:55:38.466Z,99535.08
2019-04-22T03:58:21.907Z,99536.23
2019-04-22T04:03:11.788Z,99535.39
2019-04-22T04:06:02.204Z,99538.08
2019-04-22T04:08:26.804Z,99545.53
2019-04-22T04:13:28.576Z,99540.40
2019-04-22T04:15:55.782Z,99543.48
2019-04-22T04:18:41.145Z,99544.38
2019-04-22T04:23:50.560Z,99551.19
2019-04-22T04:26:39.470Z,99547.72
2019-04-22T04:28:50.793Z,99561.43
2019-04-22T04:33:46.595Z,99551.27
2019-04-22T04:36:27.087Z,99548.83
2019-04-22T04:38:51.708Z,99553.95
2019-04-22T04:44:04.390Z,99563.66
2019-04-22T04:49:14.045Z,99564.76
2019-04-22T04:51:59.801Z,99569.01
2019-04-22T04:54:26.601Z,99569.94
2019-04-22T04:59:28.133Z,99575.36
2019-04-22T05:01:45.157Z,99578.25
2019-04-22T05:09:22.474Z,99576.22
2019-04-22T05:12:01.325Z,99575.22
2019-04-22T05:14:44.602Z,99577.88
2019-04-22T05:17:10.972Z,99581.83
2019-04-22T05:19:26.442Z,99580.64
2019-04-22T05:21:58.227Z,99588.00
2019-04-22T05:24:36.700Z,99582.13
2019-04-22T05:27:21.711Z,99586.44
2019-04-22T05:30:00.134Z,99591.52
2019-04-22T05:32:31.256Z,99581.75
2019-04-22T05:34:48.755Z,99589.14
2019-04-22T05:37:22.597Z,99597.97
2019-04-22T05:39:52.430Z,99603.75
2019-04-22T05:42:21.735Z,99591.69
2019-04-22T05:44:57.433Z,99590.23
2019-04-22T05:47:26.089Z,99598.72
2019-04-22T05:50:02.553Z,99602.08
2019-04-22T05:52:33.715Z,99604.01
2019-04-22T05:55:08.472Z,99604.08
2019-04-22T05:57:38.631Z,99609.68
2019-04-22T06:00:25.630Z,99602.69
2019-04-22T06:05:24.747Z,99600.68
2019-04-22T06:07:55.697Z,99606.42
2019-04-22T06:10:37.343Z,99604.48
2019-04-22T06:13:00.865Z,99607.42
2019-04-22T06:15:36.182Z,99610.48
2019-04-22T06:18:16.190Z,99607.25
2019-04-22T06:20:53.160Z,99610.44
2019-04-22T06:23:25.722Z,99603.54
2019-04-22T06:28:34.884Z,99613.09
2019-04-22T06:31:02.531Z,99616.81
2019-04-22T06:33:41.605Z,99607.91
2019-04-22T06:36:21.029Z,99609.76
2019-04-22T06:38:50.235Z,99611.22
2019-04-22T06:41:41.980Z,99615.59
2019-04-22T06:44:09.338Z,99613.98
2019-04-22T06:46:38.515Z,99609.02
2019-04-22T06:49:09.330Z,99613.55
2019-04-22T06:51:39.696Z,99619.61
2019-04-22T06:54:14.664Z,99616.83
2019-04-22T06:56:50.659Z,99616.10
2019-04-22T06:59:19.021Z,99616.52
2019-04-22T07:01:52.495Z,99615.46
2019-04-22T07:04:23.322Z,99619.31
2019-04-22T07:09:36.651Z,99618.06
2019-04-22T07:12:06.373Z,99608.72
2019-04-22T07:14:35.579Z,99606.59
2019-04-22T07:17:07.140Z,99597.80
2019-04-22T07:19:41.057Z,99602.61
2019-04-22T07:27:17.031Z,99603.44
2019-04-22T07:29:58.193Z,99591.61
2019-04-22T07:32:29.365Z,99604.24
2019-04-22T07:34:52.346Z,99595.92
2019-04-22T07:39:56.541Z,99594.52
2019-04-22T07:42:32.813Z,99605.43
2019-04-22T07:45:04.999Z,99603.05
2019-04-22T07:47:37.811Z,99614.38
2019-04-22T07:50:18.445Z,99619.89
2019-04-22T07:52:38.814Z,99620.52
2019-04-22T07:55:05.612Z,99623.31
2019-04-22T07:57:44.749Z,99621.31
2019-04-22T08:02:54.272Z,99614.23
2019-04-22T08:05:27.647Z,99616.21
2019-04-22T08:08:01.972Z,99620.97
2019-04-22T08:12:59.349Z,99621.28
2019-04-22T08:15:34.999Z,99614.26
2019-04-22T08:18:22.158Z,99618.74
2019-04-22T08:20:40.921Z,99626.87
2019-04-22T08:23:16.403Z,99615.24
2019-04-22T08:25:47.574Z,99622.23
2019-04-22T08:28:26.204Z,99628.95
2019-04-22T08:30:53.637Z,99623.94
2019-04-22T08:33:29.479Z,99625.28
2019-04-22T08:36:10.787Z,99616.82
2019-04-22T08:38:39.486Z,99622.11
2019-04-22T08:41:33.532Z,99633.86
2019-04-22T08:43:57.710Z,99623.45
2019-04-22T08:46:31.668Z,99633.01
2019-04-22T08:51:28.235Z,99629.41
2019-04-22T08:54:09.705Z,99623.92
2019-04-22T08:59:14.945Z,99627.47
2019-04-22T09:01:38.069Z,99636.89
2019-04-22T09:04:11.655Z,99635.27
2019-04-22T09:07:06.111Z,99627.59
2019-04-22T09:09:19.581Z,99626.95
2019-04-22T09:11:54.653Z,99636.58
2019-04-22T09:14:24.210Z,99634.53
2019-04-22T09:16:54.781Z,99628.80
2019-04-22T09:19:30.906Z,99626.99
2019-04-22T09:22:03.486Z,99632.95
2019-04-22T09:24:37.432Z,99640.83
2019-04-22T09:27:18.055Z,99641.60
2019-04-22T09:29:53.649Z,99644.94
2019-04-22T09:32:29.671Z,99646.75
2019-04-22T09:34:56.551Z,99640.34
2019-04-22T09:37:34.905Z,99660.30
2019-04-22T09:40:13.931Z,99646.59
2019-04-22T09:45:13.255Z,99647.59
2019-04-22T09:47:49.134Z,99659.63
2019-04-22T09:50:22.283Z,99645.50
2019-04-22T09:52:54.755Z,99644.88
2019-04-22T09:55:31.313Z,99642.45
2019-04-22T09:58:07.202Z,99637.85
2019-04-22T10:00:50.099Z,99636.55
2019-04-22T10:03:16.554Z,99636.66
2019-04-22T10:05:53.586Z,99632.08
2019-04-22T10:08:24.454Z,99609.13
2019-04-22T10:10:58.251Z,99621.36
2019-04-22T10:13:32.178Z,99616.91
2019-04-22T10:15:58.942Z,99621.64
2019-04-22T10:18:32.694Z,99627.77
2019-04-22T10:21:02.362Z,99634.63
2019-04-22T10:23:31.800Z,99628.91
2019-04-22T10:26:04.985Z,99619.54
2019-04-22T10:28:44.626Z,99619.53
2019-04-22T10:31:14.904Z,99628.42
2019-04-22T10:33:38.377Z,99640.98
2019-04-22T10:35:51.830Z,99638.30
2019-04-22T10:38:32.387Z,99641.73
2019-04-22T10:41:04.854Z,99643.62
2019-04-22T10:43:37.066Z,99636.92
2019-04-22T10:46:08.229Z,99635.76
2019-04-22T10:48:40.099Z,99625.38
2019-04-22T10:51:12.354Z,99634.32
2019-04-22T10:53:43.827Z,99627.26
2019-04-22T10:56:14.859Z,99642.67
2019-04-22T10:58:46.646Z,99656.59
2019-04-22T11:01:17.865Z,99658.28
2019-04-22T11:03:49.091Z,99644.40
2019-04-22T11:06:21.297Z,99640.77
2019-04-22T11:08:57.730Z,99634.52
2019-04-22T11:11:34.846Z,99639.53
2019-04-22T11:13:58.058Z,99629.05
2019-04-22T11:16:29.884Z,99629.84
2019-04-22T11:19:01.445Z,99629.91
2019-04-22T11:21:33.699Z,99625.79
2019-04-22T11:24:05.086Z,99622.38
2019-04-22T11:26:36.847Z,99620.81
2019-04-22T11:29:07.742Z,99619.63
2019-04-22T11:31:38.821Z,99621.63
2019-04-22T11:34:10.947Z,99625.80
2019-04-22T11:36:42.952Z,99620.77
2019-04-22T11:39:16.853Z,99629.96
2019-04-22T11:41:46.468Z,99637.77
2019-04-22T11:44:17.352Z,99631.34
2019-04-22T11:46:49.445Z,99620.75
2019-04-22T11:49:21.753Z,99636.09
2019-04-22T11:51:54.124Z,99628.03
2019-04-22T11:54:25.876Z,99644.16
2019-04-22T11:56:59.002Z,99635.43
2019-04-22T11:59:30.958Z,99637.08
2019-04-22T12:02:06.831Z,99633.09
2019-04-22T12:04:43.524Z,99614.55
2019-04-22T12:07:17.248Z,99610.20
2019-04-22T12:09:47.964Z,99614.11
2019-04-22T12:12:21.588Z,99616.33
2019-04-22T12:14:54.389Z,99607.22
2019-04-22T12:17:26.515Z,99599.27
2019-04-22T12:20:05.554Z,99599.31
2019-04-22T12:22:42.840Z,99604.73
2019-04-22T12:25:32.339Z,99593.67
2019-04-22T12:27:50.954Z,99608.44
2019-04-22T12:30:41.712Z,99602.55
2019-04-22T12:33:14.516Z,99590.74
2019-04-22T12:35:46.318Z,99584.59
2019-04-22T12:38:18.970Z,99580.73
2019-04-22T12:40:56.544Z,99573.84
2019-04-22T12:43:24.592Z,99585.48
2019-04-22T12:45:56.100Z,99570.63
2019-04-22T12:48:27.450Z,99570.38
2019-04-22T12:50:58.626Z,99575.34
2019-04-22T12:53:29.953Z,99571.75
2019-04-22T12:56:01.242Z,99573.86
2019-04-22T12:58:33.884Z,99565.14
2019-04-22T13:01:04.913Z,99562.93
2019-04-22T13:03:36.120Z,99568.92
2019-04-22T13:06:07.827Z,99561.28
2019-04-22T13:08:38.577Z,99556.41
2019-04-22T13:11:12.967Z,99551.08
2019-04-22T13:13:42.860Z,99545.52
2019-04-22T13:16:15.263Z,99544.18
2019-04-22T13:18:53.138Z,99538.45
2019-04-22T13:21:18.683Z,99543.22
2019-04-22T13:23:50.710Z,99534.06
2019-04-22T13:26:21.442Z,99530.23
2019-04-22T13:28:52.213Z,99527.96
2019-04-22T13:31:22.918Z,99539.70
2019-04-22T13:33:58.062Z,99527.98
2019-04-22T13:36:29.388Z,99517.46
2019-04-22T13:39:00.725Z,99516.51
2019-04-22T13:41:39.909Z,99505.86
2019-04-22T13:44:04.962Z,99518.22
2019-04-22T13:46:35.672Z,99504.08
2019-04-22T13:49:47.784Z,99501.09
2019-04-22T13:52:15.087Z,99494.13
2019-04-22T13:56:56.887Z,99483.16
2019-04-22T13:59:23.129Z,99482.30
2019-04-22T14:02:08.635Z,99486.64
2019-04-22T14:04:42.643Z,99472.42
2019-04-22T14:07:14.762Z,99475.63
2019-04-22T14:09:46.507Z,99474.47
2019-04-22T14:12:19.781Z,99474.41
2019-04-22T14:14:52.583Z,99470.91
2019-04-22T14:17:23.234Z,99471.31
2019-04-22T14:19:55.011Z,99470.48
2019-04-22T14:22:26.374Z,99477.92
2019-04-22T14:24:58.659Z,99470.88
2019-04-22T14:27:41.826Z,99487.91
2019-04-22T14:30:02.123Z,99474.05
2019-04-22T14:32:34.453Z,99461.30
2019-04-22T14:35:07.225Z,99450.11
2019-04-22T14:37:38.510Z,99442.81
2019-04-22T14:40:12.355Z,99447.04
2019-04-22T14:43:03.466Z,99438.70
2019-04-22T14:45:50.677Z,99459.63
2019-04-22T14:48:15.669Z,99454.87
2019-04-22T14:50:42.260Z,99444.31
2019-04-22T14:53:16.882Z,99451.72
2019-04-22T14:55:30.729Z,99443.55
2019-04-22T14:57:59.219Z,99436.92
2019-04-22T15:00:31.727Z,99437.34
2019-04-22T15:03:03.733Z,99432.02
2019-04-22T15:05:34.612Z,99426.79
2019-04-22T15:08:06.789Z,99425.52
2019-04-22T15:10:38.140Z,99432.06
2019-04-22T15:13:09.507Z,99433.26
2019-04-22T15:16:18.364Z,99413.08
2019-04-22T15:19:04.133Z,99422.30
2019-04-22T15:21:36.577Z,99406.98
2019-04-22T15:24:27.486Z,99425.89
2019-04-22T15:27:00.653Z,99418.49
2019-04-22T15:29:31.760Z,99418.53
2019-04-22T15:32:03.199Z,99413.05
2019-04-22T15:34:34.623Z,99419.92
2019-04-22T15:37:06.562Z,99402.98
2019-04-22T15:39:37.308Z,99413.63
2019-04-22T15:42:17.378Z,99416.86
2019-04-22T15:44:42.054Z,99421.48
2019-04-22T15:47:13.310Z,99409.38
2019-04-22T15:49:45.747Z,99409.61
2019-04-22T15:52:16.805Z,99413.09
2019-04-22T15:54:51.714Z,99402.50
2019-04-22T15:57:20.332Z,99410.27
2019-04-22T16:00:08.194Z,99406.38
2019-04-22T16:02:23.813Z,99408.84
2019-04-22T16:04:54.661Z,99413.13
2019-04-22T16:07:27.263Z,99410.80
2019-04-22T16:09:57.792Z,99407.56
2019-04-22T16:12:35.881Z,99415.94
2019-04-22T16:15:03.100Z,99415.41
2019-04-22T16:17:34.728Z,99408.99
2019-04-22T16:20:09.019Z,99413.12
2019-04-22T16:22:59.316Z,99408.08
2019-04-22T16:25:49.455Z,99416.98
2019-04-22T16:28:21.638Z,99413.83
2019-04-22T16:30:53.244Z,99414.14
2019-04-22T16:33:25.550Z,99423.83
2019-04-22T16:35:56.717Z,99409.77
2019-04-22T16:38:28.792Z,99410.27
2019-04-22T16:41:00.989Z,99411.80
2019-04-22T16:43:32.875Z,99406.69
2019-04-22T16:46:05.625Z,99412.73
2019-04-22T16:48:37.830Z,99408.36
2019-04-22T16:51:09.881Z,99407.31
2019-04-22T16:53:41.158Z,99408.35
2019-04-22T16:56:13.259Z,99407.31
2019-04-22T16:58:48.501Z,99416.66
2019-04-22T17:01:38.782Z,99414.25
2019-04-22T17:04:28.514Z,99425.00
2019-04-22T17:07:01.848Z,99429.63
2019-04-22T17:09:33.938Z,99422.41
2019-04-22T17:12:06.112Z,99420.51
2019-04-22T17:14:49.023Z,99417.48
2019-04-22T17:17:12.818Z,99421.11
2019-04-22T17:19:45.176Z,99418.80
2019-04-22T17:22:17.443Z,99416.69
2019-04-22T17:24:50.672Z,99423.38
2019-04-22T17:27:22.557Z,99420.55
2019-04-22T17:29:54.728Z,99432.95
2019-04-22T17:32:28.811Z,99420.69
2019-04-22T17:34:59.818Z,99428.22
2019-04-22T17:37:34.122Z,99424.90
2019-04-22T17:40:19.621Z,99427.45
2019-04-22T17:42:57.815Z,99424.53
2019-04-22T17:45:53.944Z,99429.09
2019-04-22T17:48:38.715Z,99430.25
2019-04-22T17:51:19.108Z,99436.61
2019-04-22T17:53:51.574Z,99442.46
2019-04-22T17:56:21.916Z,99430.64
2019-04-22T17:58:51.268Z,99445.22
2019-04-22T18:01:39.946Z,99434.00
2019-04-22T18:03:49.833Z,99453.11
2019-04-22T18:06:51.557Z,99442.85
2019-04-22T18:09:14.623Z,99442.02
2019-04-22T18:11:50.997Z,99442.28
2019-04-22T18:17:00.240Z,99453.67
2019-04-22T18:19:31.653Z,99456.92
2019-04-22T18:22:02.642Z,99449.95
2019-04-22T18:24:49.034Z,99447.74
2019-04-22T18:27:43.921Z,99465.38
2019-04-22T18:30:02.246Z,99456.33
2019-04-22T18:32:30.177Z,99469.17
2019-04-22T18:35:11.794Z,99471.14
2019-04-22T18:37:49.947Z,99468.14
2019-04-22T18:40:19.669Z,99471.90
2019-04-22T18:43:16.879Z,99471.71
2019-04-22T18:45:52.718Z,99468.70
2019-04-22T18:48:04.184Z,99475.22
2019-04-22T18:51:04.854Z,99474.02
2019-04-22T18:53:41.666Z,99489.91
2019-04-22T18:56:19.198Z,99477.66
2019-04-22T18:58:54.806Z,99479.70
2019-04-22T19:01:17.886Z,99486.81
2019-04-22T19:04:05.777Z,99482.70
2019-04-22T19:06:56.152Z,99479.31
2019-04-22T19:09:43.848Z,99472.84
2019-04-22T19:12:22.261Z,99482.37
2019-04-22T19:14:57.283Z,99485.18
2019-04-22T19:17:34.582Z,99482.11
2019-04-22T19:20:13.348Z,99475.17
2019-04-22T19:22:37.862Z,99494.72
2019-04-22T19:25:01.247Z,99482.02
2019-04-22T19:27:43.434Z,99490.87
2019-04-22T19:30:16.460Z,99492.11
2019-04-22T19:32:51.130Z,99491.98
2019-04-22T19:35:22.776Z,99485.41
2019-04-22T19:37:56.247Z,99478.98
2019-04-22T19:40:52.813Z,99479.83
2019-04-22T19:43:20.489Z,99489.97
2019-04-22T19:45:53.695Z,99483.41
2019-04-22T19:48:45.213Z,99477.61
2019-04-22T19:51:15.746Z,99479.76
2019-04-22T19:53:54.272Z,99489.28
2019-04-22T19:56:17.478Z,99476.80
2019-04-22T19:58:53.433Z,99488.80
2019-04-22T20:01:49.932Z,99485.62
2019-04-22T20:04:46.136Z,99478.81
2019-04-22T20:07:15.397Z,99478.20
2019-04-22T20:09:55.350Z,99480.42
2019-04-22T20:12:23.545Z,99478.29
2019-04-22T20:15:00.745Z,99481.13
2019-04-22T20:17:57.778Z,99475.34
2019-04-22T20:20:23.021Z,99476.58
2019-04-22T20:22:49.471Z,99473.77
2019-04-22T20:25:14.584Z,99476.45
2019-04-22T20:28:01.227Z,99478.00
2019-04-22T20:30:34.553Z,99472.09
2019-04-22T20:33:01.945Z,99482.59
2019-04-22T20:35:40.399Z,99486.23
2019-04-22T20:38:13.506Z,99477.39
2019-04-22T20:40:44.289Z,99484.96
2019-04-22T20:43:33.648Z,99483.48
2019-04-22T20:45:54.184Z,99477.10
2019-04-22T20:48:13.553Z,99474.54
2019-04-22T20:50:59.282Z,99477.64
2019-04-22T20:53:43.926Z,99475.45
2019-04-22T20:56:26.811Z,99470.11
2019-04-22T20:59:08.521Z,99477.22
2019-04-22T21:01:38.213Z,99476.70
2019-04-22T21:03:59.108Z,99490.28
2019-04-22T21:06:45.899Z,99480.69
2019-04-22T21:09:18.597Z,99490.52
2019-04-22T21:11:46.759Z,99477.22
2019-04-22T21:14:20.852Z,99473.55
2019-04-22T21:16:56.416Z,99482.03
2019-04-22T21:19:35.171Z,99475.05
2019-04-22T21:22:03.498Z,99481.03
2019-04-22T21:24:33.011Z,99479.43
2019-04-22T21:27:10.281Z,99485.00
2019-04-22T21:29:34.701Z,99481.05
2019-04-22T21:32:07.859Z,99492.89
2019-04-22T21:34:51.059Z,99480.73
2019-04-22T21:37:20.321Z,99483.81
2019-04-22T21:39:43.649Z,99495.41
2019-04-22T21:42:21.000Z,99481.39
2019-04-22T21:44:49.909Z,99481.61
2019-04-22T21:47:29.057Z,99479.10
2019-04-22T21:50:18.086Z,99489.70
2019-04-22T21:52:27.516Z,99479.41
2019-04-22T21:55:07.080Z,99469.05
2019-04-22T21:58:04.568Z,99477.94
2019-04-22T22:00:37.165Z,99470.32
2019-04-22T22:03:11.808Z,99469.92
2019-04-22T22:05:28.801Z,99460.23
2019-04-22T22:07:56.065Z,99463.33
2019-04-22T22:10:43.433Z,99469.63
2019-04-22T22:13:11.078Z,99463.02
2019-04-22T22:15:42.026Z,99447.81
2019-04-22T22:18:16.580Z,99454.10
2019-04-22T22:21:01.086Z,99456.27
2019-04-22T22:23:44.061Z,99449.52
2019-04-22T22:25:56.789Z,99453.48
2019-04-22T22:28:51.426Z,99445.98
2019-04-22T22:31:15.456Z,99447.75
2019-04-22T22:33:46.878Z,99444.84
2019-04-22T22:36:14.649Z,99452.85
2019-04-22T22:38:43.752Z,99446.18
2019-04-22T22:40:58.232Z,99442.05
2019-04-22T22:43:35.230Z,99456.77
2019-04-22T22:46:15.096Z,99449.83
2019-04-22T22:48:59.799Z,99432.83
2019-04-22T22:51:34.870Z,99435.96
2019-04-22T22:54:01.826Z,99435.21
2019-04-22T22:56:38.988Z,99438.34
2019-04-22T22:59:02.802Z,99433.95
2019-04-22T23:01:40.768Z,99427.70
2019-04-22T23:04:21.046Z,99425.78
2019-04-22T23:06:45.493Z,99419.70
2019-04-22T23:09:14.497Z,99415.34
2019-04-22T23:14:20.895Z,99424.31
2019-04-22T23:16:44.964Z,99408.19
2019-04-22T23:19:07.410Z,99404.52
2019-04-22T23:21:43.992Z,99410.80
2019-04-22T23:24:44.053Z,99407.80
2019-04-22T23:27:21.090Z,99403.94
2019-04-22T23:30:01.790Z,99407.70
2019-04-22T23:32:31.922Z,99399.42
2019-04-22T23:35:17.377Z,99397.03
2019-04-22T23:37:49.902Z,99386.82
2019-04-22T23:40:35.502Z,99390.86
2019-04-22T23:43:00.052Z,99386.13
2019-04-22T23:45:34.839Z,99404.60
2019-04-22T23:48:03.389Z,99391.06
2019-04-22T23:50:39.436Z,99385.77
2019-04-22T23:53:55.613Z,99388.05
2019-04-22T23:56:15.333Z,99367.92
2019-04-22T23:58:54.164Z,99377.13
